createdAt,value
2019-01-25T00:00:02.733Z,40.42
2019-01-25T00:01:02.790Z,40.51
2019-01-25T00:02:03.519Z,40.51
2019-01-25T00:03:10.562Z,40.19
2019-01-25T00:04:03.045Z,42.62
2019-01-25T00:05:03.415Z,43.32
2019-01-25T00:06:03.633Z,39.66
2019-01-25T00:07:03.098Z,41.59
2019-01-25T00:08:02.375Z,44.64
2019-01-25T00:09:02.260Z,39.54
2019-01-25T00:10:03.667Z,42.68
2019-01-25T00:11:02.867Z,39.39
2019-01-25T00:12:03.138Z,44.12
2019-01-25T00:13:03.125Z,42.9
2019-01-25T00:14:03.424Z,44.18
2019-01-25T00:15:02.798Z,43.27
2019-01-25T00:16:03.019Z,43.27
2019-01-25T00:17:03.031Z,39.31
2019-01-25T00:18:03.134Z,39.31
2019-01-25T00:19:02.988Z,43.11
2019-01-25T00:20:03.901Z,42.72
2019-01-25T00:21:03.083Z,42.54
2019-01-25T00:22:03.625Z,42.54
2019-01-25T00:23:03.039Z,44.73
2019-01-25T00:24:07.313Z,44.11
2019-01-25T00:25:03.697Z,40.44
2019-01-25T00:26:02.863Z,40.44
2019-01-25T00:27:02.991Z,41.24
2019-01-25T00:28:02.961Z,43.22
2019-01-25T00:29:02.905Z,41.62
2019-01-25T00:30:02.788Z,44.71
2019-01-25T00:31:03.125Z,43.45
2019-01-25T00:32:03.343Z,44.33
2019-01-25T00:33:03.563Z,44.33
2019-01-25T00:34:02.995Z,44.91
2019-01-25T00:35:02.824Z,42.97
2019-01-25T00:36:02.784Z,42.81
2019-01-25T00:37:02.447Z,42.29
2019-01-25T00:38:03.050Z,43.91
2019-01-25T00:39:03.495Z,43.06
2019-01-25T00:40:06.608Z,45.8
2019-01-25T00:41:03.764Z,44.72
2019-01-25T00:42:03.513Z,43.44
2019-01-25T00:43:03.778Z,40.62
2019-01-25T00:44:03.002Z,40.62
2019-01-25T00:45:02.999Z,42.4
2019-01-25T00:46:03.004Z,45.83
2019-01-25T00:47:03.363Z,45.83
2019-01-25T00:48:02.298Z,44.26
2019-01-25T00:49:03.182Z,41.12
2019-01-25T00:50:03.672Z,42.1
2019-01-25T00:51:02.919Z,42.1
2019-01-25T00:52:03.247Z,40.37
2019-01-25T00:53:02.776Z,45.01
2019-01-25T00:54:03.734Z,45.01
2019-01-25T00:56:03.040Z,43.89
2019-01-25T00:57:03.054Z,44.21
2019-01-25T00:58:03.063Z,42.15
2019-01-25T00:59:02.861Z,42.15
2019-01-25T01:00:03.152Z,43.2
2019-01-25T01:01:02.874Z,43.2
2019-01-25T01:02:02.802Z,41.25
2019-01-25T01:03:03.459Z,43.22
2019-01-25T01:04:02.925Z,45.21
2019-01-25T01:05:02.973Z,43.07
2019-01-25T01:06:03.336Z,43.07
2019-01-25T01:07:03.668Z,43.48
2019-01-25T01:08:02.697Z,43.48
2019-01-25T01:09:03.731Z,43.26
2019-01-25T01:10:03.557Z,43.26
2019-01-25T01:11:03.094Z,43.32
2019-01-25T01:12:02.765Z,44.54
2019-01-25T01:13:03.399Z,40.19
2019-01-25T01:14:03.360Z,40.19
2019-01-25T01:15:03.328Z,43.62
2019-01-25T01:16:03.610Z,46.3
2019-01-25T01:17:03.696Z,44.11
2019-01-25T01:18:03.136Z,43.15
2019-01-25T01:19:02.871Z,42.34
2019-01-25T01:20:03.582Z,41.86
2019-01-25T01:21:03.598Z,41.86
2019-01-25T01:22:03.501Z,41.44
2019-01-25T01:23:02.715Z,43.95
2019-01-25T01:25:02.857Z,42.42
2019-01-25T01:26:03.002Z,42.71
2019-01-25T01:28:03.113Z,43.07
2019-01-25T01:29:03.358Z,43.07
2019-01-25T01:30:02.800Z,46.09
2019-01-25T01:31:03.390Z,44.45
2019-01-25T01:32:03.317Z,42.93
2019-01-25T01:33:02.894Z,44.19
2019-01-25T01:34:03.735Z,44.19
2019-01-25T01:35:02.859Z,42.61
2019-01-25T01:36:02.858Z,42.61
2019-01-25T01:37:02.830Z,44.28
2019-01-25T01:38:03.186Z,44.28
2019-01-25T01:39:03.564Z,41.98
2019-01-25T01:40:03.770Z,44.69
2019-01-25T01:41:03.409Z,41.16
2019-01-25T01:42:03.213Z,41.16
2019-01-25T01:43:03.210Z,43.75
2019-01-25T01:44:03.184Z,45.55
2019-01-25T01:45:03.401Z,43.02
2019-01-25T01:46:03.635Z,41.98
2019-01-25T01:47:03.437Z,43.34
2019-01-25T01:48:03.385Z,42.26
2019-01-25T01:49:02.768Z,42.26
2019-01-25T01:50:02.983Z,43.41
2019-01-25T01:51:02.605Z,39.48
2019-01-25T01:52:02.658Z,39.48
2019-01-25T01:53:02.963Z,42.61
2019-01-25T01:54:03.449Z,42.68
2019-01-25T01:55:02.346Z,43.13
2019-01-25T01:56:03.231Z,43.54
2019-01-25T01:57:03.377Z,43.54
2019-01-25T01:58:02.707Z,41.84
2019-01-25T01:59:03.446Z,44.34
2019-01-25T02:00:02.914Z,43.11
2019-01-25T02:01:03.644Z,40.65
2019-01-25T02:02:02.902Z,42.95
2019-01-25T02:03:03.066Z,41.99
2019-01-25T02:04:03.162Z,42.48
2019-01-25T02:05:03.096Z,40.81
2019-01-25T02:06:03.341Z,40.81
2019-01-25T02:07:03.610Z,42.25
2019-01-25T02:08:02.743Z,42.52
2019-01-25T02:09:03.350Z,46.62
2019-01-25T02:10:03.388Z,45.61
2019-01-25T02:11:02.947Z,43.85
2019-01-25T02:12:03.245Z,43.59
2019-01-25T02:13:03.734Z,42.97
2019-01-25T02:14:03.035Z,44.52
2019-01-25T02:15:02.961Z,44.09
2019-01-25T02:16:03.226Z,45.96
2019-01-25T02:17:03.033Z,45.96
2019-01-25T02:18:03.010Z,41.61
2019-01-25T02:19:02.940Z,43.43
2019-01-25T02:20:03.295Z,41.72
2019-01-25T02:21:03.432Z,41.72
2019-01-25T02:22:02.924Z,42.91
2019-01-25T02:23:03.222Z,39.19
2019-01-25T02:24:03.474Z,42.51
2019-01-25T02:25:02.890Z,40.45
2019-01-25T02:26:03.202Z,43.21
2019-01-25T02:27:03.466Z,41.08
2019-01-25T02:28:02.839Z,42.61
2019-01-25T02:29:02.544Z,42.46
2019-01-25T02:30:03.053Z,42.46
2019-01-25T02:31:03.258Z,42.14
2019-01-25T02:32:03.691Z,40.27
2019-01-25T02:33:01.646Z,42.94
2019-01-25T02:34:02.720Z,42.1
2019-01-25T02:35:03.149Z,43.24
2019-01-25T02:36:03.044Z,43.28
2019-01-25T02:37:03.406Z,43.28
2019-01-25T02:38:03.181Z,43.5
2019-01-25T02:39:02.988Z,43.5
2019-01-25T02:40:03.767Z,45.82
2019-01-25T02:41:03.427Z,45.82
2019-01-25T02:42:03.628Z,44.38
2019-01-25T02:43:03.521Z,44.12
2019-01-25T02:44:02.820Z,44.12
2019-01-25T02:45:03.104Z,43.61
2019-01-25T02:46:03.495Z,44.28
2019-01-25T02:47:02.960Z,41.42
2019-01-25T02:48:03.044Z,41.42
2019-01-25T02:49:03.590Z,43.26
2019-01-25T02:50:03.316Z,41.18
2019-01-25T02:51:02.923Z,45.74
2019-01-25T02:52:03.487Z,43.92
2019-01-25T02:53:04.249Z,43.35
2019-01-25T02:54:03.081Z,44.14
2019-01-25T02:55:03.201Z,44.14
2019-01-25T02:56:02.995Z,43.57
2019-01-25T02:57:03.270Z,42.49
2019-01-25T02:58:02.816Z,44.62
2019-01-25T02:59:03.133Z,44.62
2019-01-25T03:00:02.690Z,43.51
2019-01-25T03:01:03.582Z,44.28
2019-01-25T03:02:02.620Z,43.86
2019-01-25T03:03:03.231Z,46.36
2019-01-25T03:04:03.311Z,41.15
2019-01-25T03:05:03.491Z,41.15
2019-01-25T03:06:02.729Z,42.01
2019-01-25T03:07:03.088Z,42.7
2019-01-25T03:08:02.416Z,42.31
2019-01-25T03:09:01.854Z,43.88
2019-01-25T03:10:03.289Z,44.92
2019-01-25T03:11:02.830Z,42.85
2019-01-25T03:12:02.867Z,44.81
2019-01-25T03:13:03.685Z,45.33
2019-01-25T03:14:03.382Z,44.85
2019-01-25T03:15:03.561Z,45.01
2019-01-25T03:16:02.995Z,45.34
2019-01-25T03:17:02.239Z,41.91
2019-01-25T03:18:02.889Z,43.51
2019-01-25T03:19:03.436Z,43.51
2019-01-25T03:20:02.872Z,41.91
2019-01-25T03:21:05.179Z,42.99
2019-01-25T03:22:03.216Z,44.08
2019-01-25T03:23:02.820Z,44.08
2019-01-25T03:24:02.670Z,44.08
2019-01-25T03:25:03.587Z,43.75
2019-01-25T03:26:03.219Z,43.75
2019-01-25T03:27:03.336Z,43.54
2019-01-25T03:28:02.901Z,42.37
2019-01-25T03:29:03.068Z,42.37
2019-01-25T03:30:03.412Z,44.04
2019-01-25T03:31:02.669Z,44.04
2019-01-25T03:32:02.874Z,42.04
2019-01-25T03:33:02.569Z,41.86
2019-01-25T03:34:03.090Z,42.42
2019-01-25T03:35:03.029Z,44.29
2019-01-25T03:36:03.499Z,41.94
2019-01-25T03:37:02.855Z,41.94
2019-01-25T03:38:03.385Z,43.28
2019-01-25T03:39:03.459Z,44.35
2019-01-25T03:40:03.342Z,43.98
2019-01-25T03:41:02.828Z,42.24
2019-01-25T03:42:03.028Z,42.25
2019-01-25T03:43:02.941Z,43.95
2019-01-25T03:44:02.768Z,44.15
2019-01-25T03:45:03.126Z,40.91
2019-01-25T03:46:03.504Z,46.5
2019-01-25T03:47:02.744Z,46.5
2019-01-25T03:48:03.600Z,44.78
2019-01-25T03:49:03.537Z,41.15
2019-01-25T03:50:02.824Z,46.35
2019-01-25T03:51:03.660Z,40.42
2019-01-25T03:52:03.358Z,43.56
2019-01-25T03:53:03.449Z,43.51
2019-01-25T03:54:03.049Z,43.51
2019-01-25T03:55:02.817Z,46.19
2019-01-25T03:56:03.307Z,43.84
2019-01-25T03:57:04.678Z,43.84
2019-01-25T03:58:03.488Z,43.98
2019-01-25T03:59:03.100Z,43.98
2019-01-25T04:00:03.189Z,42.83
2019-01-25T04:01:02.975Z,42.83
2019-01-25T04:02:03.170Z,42.14
2019-01-25T04:03:03.661Z,42.14
2019-01-25T04:04:02.987Z,43.49
2019-01-25T04:05:02.845Z,43.26
2019-01-25T04:06:02.671Z,43.32
2019-01-25T04:07:02.726Z,42.18
2019-01-25T04:08:02.726Z,44.78
2019-01-25T04:09:02.327Z,49.15
2019-01-25T04:10:02.942Z,46.06
2019-01-25T04:11:04.228Z,41.73
2019-01-25T04:12:03.423Z,42.82
2019-01-25T04:13:02.966Z,44.65
2019-01-25T04:14:03.549Z,41.05
2019-01-25T04:15:03.442Z,42.08
2019-01-25T04:16:02.879Z,45.99
2019-01-25T04:17:02.872Z,40.58
2019-01-25T04:18:03.723Z,43.6
2019-01-25T04:19:03.346Z,43.6
2019-01-25T04:20:02.408Z,43.11
2019-01-25T04:21:03.569Z,44.94
2019-01-25T04:22:02.853Z,43.05
2019-01-25T04:23:03.526Z,43.05
2019-01-25T04:24:03.030Z,41.58
2019-01-25T04:25:03.576Z,41.58
2019-01-25T04:26:03.620Z,46.52
2019-01-25T04:27:03.269Z,46.52
2019-01-25T04:28:02.985Z,43.61
2019-01-25T04:29:02.867Z,42.09
2019-01-25T04:30:03.254Z,43.21
2019-01-25T04:31:02.910Z,43.21
2019-01-25T04:32:03.013Z,44.76
2019-01-25T04:33:02.775Z,44.08
2019-01-25T04:34:03.182Z,42.45
2019-01-25T04:35:02.670Z,42.45
2019-01-25T04:36:03.345Z,42.27
2019-01-25T04:37:03.193Z,44.17
2019-01-25T04:38:02.950Z,40.96
2019-01-25T04:39:03.537Z,43.9
2019-01-25T04:40:02.959Z,45.87
2019-01-25T04:41:02.606Z,43.29
2019-01-25T04:42:03.009Z,43.35
2019-01-25T04:43:03.707Z,43.77
2019-01-25T04:44:02.688Z,42.66
2019-01-25T04:45:02.961Z,41.55
2019-01-25T04:46:03.500Z,45.14
2019-01-25T04:47:03.225Z,41.78
2019-01-25T04:48:02.848Z,41.71
2019-01-25T04:49:03.250Z,41.43
2019-01-25T04:50:02.795Z,42.12
2019-01-25T04:51:03.415Z,41.87
2019-01-25T04:52:03.110Z,44.01
2019-01-25T04:53:03.343Z,41.41
2019-01-25T04:54:03.153Z,44.15
2019-01-25T04:55:03.200Z,44.2
2019-01-25T04:56:02.779Z,44.2
2019-01-25T04:57:03.175Z,43.93
2019-01-25T04:58:02.924Z,43.93
2019-01-25T04:59:02.883Z,42.46
2019-01-25T05:00:03.827Z,42.92
2019-01-25T05:01:02.777Z,43.81
2019-01-25T05:02:03.414Z,43.81
2019-01-25T05:03:02.698Z,43.85
2019-01-25T05:04:03.219Z,43.45
2019-01-25T05:05:03.180Z,43.45
2019-01-25T05:06:02.363Z,41.62
2019-01-25T05:07:03.478Z,41.62
2019-01-25T05:08:03.237Z,42.95
2019-01-25T05:09:03.102Z,42.81
2019-01-25T05:10:03.528Z,43.91
2019-01-25T05:11:02.920Z,43.83
2019-01-25T05:12:03.124Z,43.38
2019-01-25T05:13:03.098Z,43.62
2019-01-25T05:14:03.154Z,45.55
2019-01-25T05:15:03.594Z,44.84
2019-01-25T05:16:02.787Z,45.58
2019-01-25T05:17:02.786Z,42.86
2019-01-25T05:18:03.648Z,42.21
2019-01-25T05:19:03.599Z,42.56
2019-01-25T05:20:03.041Z,42.56
2019-01-25T05:21:03.097Z,43.36
2019-01-25T05:22:03.087Z,42.59
2019-01-25T05:23:02.975Z,44.95
2019-01-25T05:24:03.556Z,44.95
2019-01-25T05:25:02.835Z,44.84
2019-01-25T05:26:03.545Z,44.84
2019-01-25T05:27:03.103Z,42.72
2019-01-25T05:28:03.515Z,42.56
2019-01-25T05:29:03.648Z,46.42
2019-01-25T05:30:02.987Z,43.55
2019-01-25T05:31:01.940Z,42.21
2019-01-25T05:32:03.632Z,43.86
2019-01-25T05:33:03.586Z,43.27
2019-01-25T05:34:03.249Z,43.27
2019-01-25T05:35:03.495Z,43.52
2019-01-25T05:36:03.439Z,44.96
2019-01-25T05:37:03.346Z,40.58
2019-01-25T05:38:03.407Z,45.2
2019-01-25T05:39:03.091Z,42.54
2019-01-25T05:40:03.580Z,44.32
2019-01-25T05:41:03.455Z,42.96
2019-01-25T05:42:02.520Z,41.76
2019-01-25T05:43:03.115Z,46.94
2019-01-25T05:44:02.960Z,43.88
2019-01-25T05:45:03.693Z,42.06
2019-01-25T05:46:03.379Z,42.06
2019-01-25T05:47:03.004Z,44.89
2019-01-25T05:48:03.635Z,44.89
2019-01-25T05:49:03.688Z,41.48
2019-01-25T05:50:03.574Z,41.48
2019-01-25T05:51:03.091Z,44.98
2019-01-25T05:52:03.113Z,45.24
2019-01-25T05:53:03.021Z,45.24
2019-01-25T05:54:02.758Z,44.88
2019-01-25T05:55:03.205Z,44.88
2019-01-25T05:56:03.556Z,42.95
2019-01-25T05:57:02.911Z,42.95
2019-01-25T05:58:02.704Z,44.75
2019-01-25T05:59:03.222Z,45.9
2019-01-25T06:00:03.314Z,40.51
2019-01-25T06:01:02.433Z,43.08
2019-01-25T06:02:02.811Z,43.56
2019-01-25T06:03:02.028Z,45.16
2019-01-25T06:04:03.468Z,44.13
2019-01-25T06:05:02.900Z,46.58
2019-01-25T06:06:02.851Z,45.85
2019-01-25T06:07:02.986Z,47.13
2019-01-25T06:08:03.252Z,44.55
2019-01-25T06:09:03.595Z,44.76
2019-01-25T06:10:03.667Z,45.75
2019-01-25T06:11:03.501Z,42.83
2019-01-25T06:12:03.209Z,42.99
2019-01-25T06:13:03.129Z,44.52
2019-01-25T06:14:02.840Z,44.52
2019-01-25T06:15:03.155Z,41.36
2019-01-25T06:16:02.719Z,41.36
2019-01-25T06:17:03.304Z,41.5
2019-01-25T06:18:03.444Z,43.11
2019-01-25T06:19:03.109Z,43.11
2019-01-25T06:20:03.161Z,43.95
2019-01-25T06:21:03.056Z,43.95
2019-01-25T06:22:02.522Z,42.45
2019-01-25T06:23:03.601Z,42.41
2019-01-25T06:24:03.587Z,40.45
2019-01-25T06:25:03.364Z,41.39
2019-01-25T06:26:03.540Z,43.54
2019-01-25T06:27:02.956Z,41.29
2019-01-25T06:28:02.832Z,44.44
2019-01-25T06:29:02.929Z,42.74
2019-01-25T06:30:02.261Z,43.54
2019-01-25T06:31:02.936Z,44.44
2019-01-25T06:32:01.830Z,46.5
2019-01-25T06:33:03.021Z,41.41
2019-01-25T06:34:02.760Z,45.26
2019-01-25T06:35:03.366Z,45.13
2019-01-25T06:36:03.013Z,43
2019-01-25T06:37:03.716Z,42.25
2019-01-25T06:38:03.064Z,43.24
2019-01-25T06:39:03.010Z,43.35
2019-01-25T06:40:03.246Z,44.12
2019-01-25T06:41:03.575Z,44.12
2019-01-25T06:42:03.113Z,43.07
2019-01-25T06:43:03.103Z,44.52
2019-01-25T06:44:03.191Z,44.52
2019-01-25T06:45:03.579Z,44.52
2019-01-25T06:46:03.533Z,46.56
2019-01-25T06:47:03.319Z,45.72
2019-01-25T06:48:02.941Z,48.82
2019-01-25T06:49:03.505Z,48.82
2019-01-25T06:50:03.403Z,44.48
2019-01-25T06:51:02.746Z,43.06
2019-01-25T06:52:03.507Z,43.84
2019-01-25T06:53:02.747Z,43.84
2019-01-25T06:54:02.152Z,43.96
2019-01-25T06:55:02.930Z,42.61
2019-01-25T06:56:03.475Z,44.23
2019-01-25T06:57:03.058Z,45.1
2019-01-25T06:58:03.160Z,44.25
2019-01-25T06:59:02.833Z,44.89
2019-01-25T07:00:03.035Z,47.01
2019-01-25T07:01:02.677Z,43.99
2019-01-25T07:02:03.204Z,45
2019-01-25T07:03:02.669Z,46.67
2019-01-25T07:04:03.496Z,46.67
2019-01-25T07:05:03.025Z,41.11
2019-01-25T07:06:03.616Z,45.07
2019-01-25T07:07:03.660Z,43.59
2019-01-25T07:08:03.190Z,43.59
2019-01-25T07:09:02.925Z,41.25
2019-01-25T07:10:03.404Z,44.81
2019-01-25T07:11:03.911Z,40.82
2019-01-25T07:12:03.063Z,40.82
2019-01-25T07:13:03.210Z,43.62
2019-01-25T07:14:02.370Z,41.21
2019-01-25T07:15:02.853Z,39.82
2019-01-25T07:16:01.936Z,44.6
2019-01-25T07:17:02.674Z,39.92
2019-01-25T07:18:03.479Z,43.2
2019-01-25T07:19:03.151Z,43.24
2019-01-25T07:20:03.670Z,40.89
2019-01-25T07:21:02.931Z,41.21
2019-01-25T07:22:03.517Z,40.48
2019-01-25T07:23:02.796Z,41.19
2019-01-25T07:24:02.939Z,39.89
2019-01-25T07:25:03.037Z,41.39
2019-01-25T07:26:04.049Z,39.25
2019-01-25T07:27:02.939Z,39.1
2019-01-25T07:28:02.736Z,39.1
2019-01-25T07:29:02.740Z,43.34
2019-01-25T07:30:02.947Z,37.87
2019-01-25T07:31:03.544Z,40.52
2019-01-25T07:32:03.471Z,40.52
2019-01-25T07:33:02.734Z,40.96
2019-01-25T07:34:03.410Z,40.96
2019-01-25T07:35:03.414Z,38.79
2019-01-25T07:36:02.978Z,40.4
2019-01-25T07:37:03.525Z,40.19
2019-01-25T07:38:03.005Z,40.21
2019-01-25T07:39:02.952Z,40.28
2019-01-25T07:40:02.901Z,40.06
2019-01-25T07:41:03.583Z,41.74
2019-01-25T07:42:03.596Z,39.83
2019-01-25T07:43:02.695Z,42.14
2019-01-25T07:44:01.832Z,37.3
2019-01-25T07:45:03.845Z,37.3
2019-01-25T07:46:02.796Z,40.65
2019-01-25T07:47:02.062Z,42.48
2019-01-25T07:48:03.620Z,38.53
2019-01-25T07:49:03.082Z,37.96
2019-01-25T07:50:03.660Z,39.92
2019-01-25T07:51:03.099Z,39.29
2019-01-25T07:52:03.128Z,39.35
2019-01-25T07:53:03.241Z,38.91
2019-01-25T07:54:02.791Z,38.91
2019-01-25T07:55:02.992Z,40.81
2019-01-25T07:56:03.733Z,37.58
2019-01-25T07:57:02.762Z,39.7
2019-01-25T07:58:02.893Z,38.62
2019-01-25T07:59:03.416Z,38.62
2019-01-25T08:00:03.258Z,38.9
2019-01-25T08:01:02.966Z,38.77
2019-01-25T08:02:02.772Z,37.34
2019-01-25T08:03:03.477Z,37.34
2019-01-25T08:04:02.859Z,40.57
2019-01-25T08:05:03.552Z,40.57
2019-01-25T08:06:02.988Z,42.86
2019-01-25T08:07:02.711Z,39.28
2019-01-25T08:08:02.686Z,37.92
2019-01-25T08:09:03.593Z,40.42
2019-01-25T08:10:04.068Z,40.28
2019-01-25T08:11:03.249Z,36.19
2019-01-25T08:12:08.168Z,38.71
2019-01-25T08:13:01.751Z,37.61
2019-01-25T08:14:02.781Z,37.85
2019-01-25T08:15:03.374Z,36.55
2019-01-25T08:16:02.927Z,36.81
2019-01-25T08:17:03.732Z,35.48
2019-01-25T08:18:03.201Z,37.56
2019-01-25T08:19:03.029Z,36.3
2019-01-25T08:20:02.927Z,37.42
2019-01-25T08:21:02.595Z,37.42
2019-01-25T08:22:03.173Z,35.49
2019-01-25T08:23:02.770Z,35.49
2019-01-25T08:24:02.768Z,35.09
2019-01-25T08:25:03.202Z,36.17
2019-01-25T08:26:03.257Z,35.94
2019-01-25T08:27:03.116Z,35.94
2019-01-25T08:28:03.580Z,35.73
2019-01-25T08:29:02.986Z,35.73
2019-01-25T08:30:03.213Z,35.06
2019-01-25T08:31:03.042Z,38.76
2019-01-25T08:32:03.554Z,38.83
2019-01-25T08:33:03.028Z,39.89
2019-01-25T08:34:02.463Z,39.67
2019-01-25T08:35:02.570Z,43.18
2019-01-25T08:36:03.540Z,45.2
2019-01-25T08:37:03.608Z,45.2
2019-01-25T08:38:01.950Z,39.69
2019-01-25T08:39:03.648Z,39.96
2019-01-25T08:40:02.672Z,38.24
2019-01-25T08:41:01.855Z,39.61
2019-01-25T08:42:03.201Z,37.41
2019-01-25T08:43:03.577Z,38.24
2019-01-25T08:44:03.602Z,38.96
2019-01-25T08:45:03.614Z,37.83
2019-01-25T08:46:03.318Z,38.55
2019-01-25T08:47:03.204Z,38.31
2019-01-25T08:48:03.169Z,35.81
2019-01-25T08:49:03.101Z,35.65
2019-01-25T08:50:03.607Z,39.04
2019-01-25T08:51:03.819Z,37.32
2019-01-25T08:52:03.369Z,37.32
2019-01-25T08:53:03.027Z,35.38
2019-01-25T08:54:03.290Z,34.16
2019-01-25T08:55:03.434Z,37.46
2019-01-25T08:56:03.086Z,37.46
2019-01-25T08:57:03.085Z,34.32
2019-01-25T08:58:02.909Z,34.32
2019-01-25T08:59:02.980Z,37.86
2019-01-25T09:00:03.348Z,37.86
2019-01-25T09:01:03.057Z,36.31
2019-01-25T09:02:03.580Z,35.62
2019-01-25T09:03:03.369Z,37.13
2019-01-25T09:04:02.044Z,36.83
2019-01-25T09:05:02.880Z,36.83
2019-01-25T09:06:03.860Z,34.11
2019-01-25T09:07:03.026Z,36.29
2019-01-25T09:08:03.712Z,36.29
2019-01-25T09:09:03.015Z,34.27
2019-01-25T09:10:03.787Z,33.26
2019-01-25T09:11:03.034Z,37.02
2019-01-25T09:12:03.508Z,37.02
2019-01-25T09:13:03.549Z,34.96
2019-01-25T09:14:03.327Z,34.96
2019-01-25T09:15:02.592Z,33.72
2019-01-25T09:16:03.345Z,34.36
2019-01-25T09:17:03.507Z,34.28
2019-01-25T09:18:02.870Z,34.28
2019-01-25T09:19:02.745Z,34.18
2019-01-25T09:20:03.627Z,34.18
2019-01-25T09:21:02.597Z,36.52
2019-01-25T09:22:03.391Z,36.52
2019-01-25T09:23:03.013Z,34.51
2019-01-25T09:24:03.386Z,37.05
2019-01-25T09:25:03.037Z,35.59
2019-01-25T09:26:02.317Z,36.12
2019-01-25T09:27:02.724Z,34.55
2019-01-25T09:28:01.821Z,35.75
2019-01-25T09:29:02.965Z,36.43
2019-01-25T09:30:03.457Z,35.1
2019-01-25T09:31:02.991Z,34.72
2019-01-25T09:32:03.234Z,34.72
2019-01-25T09:33:03.738Z,34.54
2019-01-25T09:34:03.243Z,35.3
2019-01-25T09:35:03.425Z,35.31
2019-01-25T09:36:02.792Z,34.4
2019-01-25T09:37:01.828Z,35.98
2019-01-25T09:38:02.947Z,34.88
2019-01-25T09:39:02.907Z,34.88
2019-01-25T09:40:03.022Z,32.19
2019-01-25T09:41:02.777Z,34.58
2019-01-25T09:42:02.531Z,32.75
2019-01-25T09:43:03.587Z,32.75
2019-01-25T09:44:03.639Z,36.55
2019-01-25T09:45:02.988Z,34.26
2019-01-25T09:46:03.094Z,37.09
2019-01-25T09:47:02.792Z,40.21
2019-01-25T09:48:03.500Z,35.88
2019-01-25T09:49:03.304Z,35.88
2019-01-25T09:50:03.163Z,34.95
2019-01-25T09:51:02.740Z,34.95
2019-01-25T09:52:03.007Z,33.35
2019-01-25T09:53:02.798Z,33.35
2019-01-25T09:54:03.706Z,31.11
2019-01-25T09:55:03.127Z,31.11
2019-01-25T09:56:03.448Z,29.62
2019-01-25T09:57:03.142Z,29.62
2019-01-25T09:58:03.282Z,31.05
2019-01-25T09:59:03.035Z,30.53
2019-01-25T10:00:02.910Z,28.84
2019-01-25T10:01:02.649Z,28.84
2019-01-25T10:02:01.934Z,29.29
2019-01-25T10:03:03.647Z,29.29
2019-01-25T10:04:02.539Z,29.54
2019-01-25T10:05:03.667Z,28.53
2019-01-25T10:06:03.490Z,29.96
2019-01-25T10:07:02.722Z,28.01
2019-01-25T10:08:02.795Z,30.23
2019-01-25T10:09:03.051Z,29.69
2019-01-25T10:10:03.297Z,31.86
2019-01-25T10:11:02.814Z,29.75
2019-01-25T10:12:03.223Z,29.78
2019-01-25T10:13:02.841Z,30.22
2019-01-25T10:14:03.547Z,30.22
2019-01-25T10:15:03.325Z,29.71
2019-01-25T10:16:03.209Z,28.89
2019-01-25T10:17:03.784Z,28.62
2019-01-25T10:18:03.758Z,30.62
2019-01-25T10:19:03.677Z,30.86
2019-01-25T10:20:02.998Z,30
2019-01-25T10:21:03.079Z,30.09
2019-01-25T10:22:02.677Z,30.09
2019-01-25T10:23:02.729Z,29.24
2019-01-25T10:24:03.624Z,29.78
2019-01-25T10:25:03.661Z,31.65
2019-01-25T10:26:02.374Z,31.44
2019-01-25T10:27:03.259Z,29.45
2019-01-25T10:28:02.807Z,30.82
2019-01-25T10:29:04.093Z,31.62
2019-01-25T10:30:02.858Z,31.39
2019-01-25T10:31:02.602Z,31.25
2019-01-25T10:32:03.547Z,31.25
2019-01-25T10:33:03.031Z,29.79
2019-01-25T10:34:02.044Z,30.92
2019-01-25T10:35:03.050Z,32.01
2019-01-25T10:36:03.224Z,31.93
2019-01-25T10:37:03.469Z,32.37
2019-01-25T10:38:04.946Z,32.37
2019-01-25T10:39:03.021Z,31.67
2019-01-25T10:40:02.936Z,32.02
2019-01-25T10:41:02.869Z,29.79
2019-01-25T10:42:03.399Z,29.79
2019-01-25T10:43:02.697Z,31.83
2019-01-25T10:44:03.364Z,31.83
2019-01-25T10:45:04.859Z,29.32
2019-01-25T10:46:03.566Z,25.71
2019-01-25T10:47:02.771Z,27.53
2019-01-25T10:48:03.274Z,27.95
2019-01-25T10:49:02.958Z,27.95
2019-01-25T10:50:03.110Z,30.39
2019-01-25T10:51:02.782Z,30.39
2019-01-25T10:52:02.819Z,30.94
2019-01-25T10:53:03.395Z,30.94
2019-01-25T10:54:03.438Z,28.17
2019-01-25T10:55:02.332Z,27.84
2019-01-25T10:56:03.623Z,25.82
2019-01-25T10:57:03.319Z,25.96
2019-01-25T10:58:03.649Z,28.76
2019-01-25T10:59:03.096Z,26.22
2019-01-25T11:00:03.601Z,27.98
2019-01-25T11:01:02.857Z,26.05
2019-01-25T11:02:03.079Z,28.24
2019-01-25T11:03:03.577Z,29.6
2019-01-25T11:04:03.547Z,28.14
2019-01-25T11:05:03.080Z,28.84
2019-01-25T11:06:03.155Z,29.84
2019-01-25T11:07:03.480Z,26.12
2019-01-25T11:08:02.683Z,28.77
2019-01-25T11:09:03.669Z,28.77
2019-01-25T11:10:03.884Z,27.04
2019-01-25T11:11:03.582Z,27.04
2019-01-25T11:12:03.341Z,28.46
2019-01-25T11:13:03.043Z,28.46
2019-01-25T11:14:03.392Z,29.33
2019-01-25T11:15:03.080Z,29.33
2019-01-25T11:16:03.484Z,28.91
2019-01-25T11:17:03.598Z,27.18
2019-01-25T11:18:03.216Z,26.85
2019-01-25T11:19:02.973Z,24.01
2019-01-25T11:20:03.743Z,23.78
2019-01-25T11:21:03.316Z,25.79
2019-01-25T11:22:02.818Z,25.09
2019-01-25T11:23:02.061Z,23.97
2019-01-25T11:24:08.022Z,23.39
2019-01-25T11:25:01.837Z,25.9
2019-01-25T11:26:03.453Z,25.89
2019-01-25T11:27:03.600Z,26.56
2019-01-25T11:28:02.929Z,26.81
2019-01-25T11:29:03.261Z,25.49
2019-01-25T11:30:03.239Z,26
2019-01-25T11:31:03.643Z,25.38
2019-01-25T11:32:03.260Z,26.86
2019-01-25T11:33:03.357Z,26.86
2019-01-25T11:34:02.829Z,26.44
2019-01-25T11:35:03.714Z,25.76
2019-01-25T11:36:03.529Z,26.49
2019-01-25T11:37:03.113Z,26.49
2019-01-25T11:38:03.272Z,27.29
2019-01-25T11:39:02.720Z,27.29
2019-01-25T11:40:03.659Z,25.92
2019-01-25T11:41:03.300Z,27.16
2019-01-25T11:42:03.202Z,27.46
2019-01-25T11:43:09.224Z,27.46
2019-01-25T11:44:03.580Z,27.47
2019-01-25T11:45:03.275Z,31
2019-01-25T11:46:02.942Z,25
2019-01-25T11:47:02.944Z,28.34
2019-01-25T11:48:02.824Z,28.01
2019-01-25T11:49:02.725Z,28.01
2019-01-25T11:50:03.063Z,24.68
2019-01-25T11:51:03.273Z,29.49
2019-01-25T11:52:03.289Z,29.49
2019-01-25T11:53:03.421Z,30.19
2019-01-25T11:54:03.599Z,30.19
2019-01-25T11:55:04.080Z,28.02
2019-01-25T11:56:02.841Z,28.02
2019-01-25T11:57:02.968Z,27.81
2019-01-25T11:58:03.064Z,27.89
2019-01-25T11:59:03.669Z,29.63
2019-01-25T12:00:02.941Z,29.63
2019-01-25T12:01:02.220Z,29.69
2019-01-25T12:02:02.319Z,27.69
2019-01-25T12:03:02.995Z,27.69
2019-01-25T12:04:03.661Z,26.56
2019-01-25T12:05:02.753Z,29.79
2019-01-25T12:06:03.258Z,30.29
2019-01-25T12:07:02.780Z,31.04
2019-01-25T12:08:03.365Z,31.04
2019-01-25T12:09:03.145Z,25.24
2019-01-25T12:10:03.140Z,26.33
2019-01-25T12:11:02.683Z,25.75
2019-01-25T12:12:03.525Z,25.89
2019-01-25T12:13:03.371Z,28.29
2019-01-25T12:14:03.313Z,27.34
2019-01-25T12:15:03.112Z,28.86
2019-01-25T12:16:03.008Z,28.07
2019-01-25T12:17:03.336Z,27.35
2019-01-25T12:18:02.837Z,27.35
2019-01-25T12:19:02.742Z,25.52
2019-01-25T12:20:03.637Z,25.52
2019-01-25T12:21:02.947Z,30.64
2019-01-25T12:22:02.875Z,30.64
2019-01-25T12:23:03.050Z,28.93
2019-01-25T12:24:03.598Z,28.93
2019-01-25T12:25:03.246Z,29.24
2019-01-25T12:26:02.708Z,27.32
2019-01-25T12:27:03.323Z,27.32
2019-01-25T12:28:05.637Z,30.58
2019-01-25T12:29:01.803Z,27.67
2019-01-25T12:30:01.771Z,27.67
2019-01-25T12:31:02.895Z,27.62
2019-01-25T12:32:03.237Z,27.21
2019-01-25T12:33:02.641Z,27.21
2019-01-25T12:34:03.802Z,26.92
2019-01-25T12:35:07.584Z,28.02
2019-01-25T12:36:02.958Z,26.61
2019-01-25T12:37:04.922Z,27.92
2019-01-25T12:38:02.923Z,27.44
2019-01-25T12:39:03.142Z,28.22
2019-01-25T12:40:03.272Z,28.14
2019-01-25T12:41:02.591Z,27.18
2019-01-25T12:42:02.817Z,28.17
2019-01-25T12:43:03.438Z,28.81
2019-01-25T12:44:03.510Z,28.81
2019-01-25T12:45:03.403Z,26.82
2019-01-25T12:46:03.195Z,29.55
2019-01-25T12:47:02.040Z,26.18
2019-01-25T12:48:03.013Z,26.18
2019-01-25T12:49:02.720Z,26.15
2019-01-25T12:50:03.057Z,27.79
2019-01-25T12:51:02.677Z,28.22
2019-01-25T12:52:08.544Z,28.22
2019-01-25T12:53:02.805Z,29.81
2019-01-25T12:54:03.371Z,29.47
2019-01-25T12:55:03.167Z,27.54
2019-01-25T12:56:02.929Z,27.54
2019-01-25T12:57:02.809Z,25.79